sensor_id;sensor_type;location;lat;lon;timestamp;pressure;altitude;pressure_sealevel;temperature;humidity
76195;BME280;64964;48.694;21.206;2024-03-23T00:53:59;97616.63;;;9.70;59.23
76195;BME280;64964;48.694;21.206;2024-03-23T00:56:24;97608.91;;;9.61;59.59
76195;BME280;64964;48.694;21.206;2024-03-23T00:58:50;97620.44;;;9.68;59.30
76195;BME280;64964;48.694;21.206;2024-03-23T01:01:15;97627.53;;;9.67;59.53
76195;BME280;64964;48.694;21.206;2024-03-23T01:03:41;97626.53;;;9.68;59.61
76195;BME280;64964;48.694;21.206;2024-03-23T01:06:06;97630.81;;;9.69;59.31
76195;BME280;64964;48.694;21.206;2024-03-23T01:08:31;97604.97;;;9.57;59.56
76195;BME280;64964;48.694;21.206;2024-03-23T01:10:58;97614.84;;;9.63;59.36
76195;BME280;64964;48.694;21.206;2024-03-23T01:13:24;97632.75;;;9.76;59.52
76195;BME280;64964;48.694;21.206;2024-03-23T01:15:53;97631.59;;;9.78;59.50
76195;BME280;64964;48.694;21.206;2024-03-23T01:18:19;97630.59;;;9.79;59.36
76195;BME280;64964;48.694;21.206;2024-03-23T01:20:45;97619.56;;;9.76;59.25
76195;BME280;64964;48.694;21.206;2024-03-23T01:23:11;97623.22;;;9.75;59.14
76195;BME280;64964;48.694;21.206;2024-03-23T01:25:36;97606.63;;;9.58;59.47
76195;BME280;64964;48.694;21.206;2024-03-23T01:28:02;97617.16;;;9.66;59.81
76195;BME280;64964;48.694;21.206;2024-03-23T01:30:27;97617.16;;;9.66;60.01
76195;BME280;64964;48.694;21.206;2024-03-23T01:32:53;97619.78;;;9.66;59.96
76195;BME280;64964;48.694;21.206;2024-03-23T01:35:19;97619.94;;;9.64;59.85
76195;BME280;64964;48.694;21.206;2024-03-23T01:37:44;97621.94;;;9.62;60.07
76195;BME280;64964;48.694;21.206;2024-03-23T01:40:10;97615.00;;;9.61;59.96
76195;BME280;64964;48.694;21.206;2024-03-23T01:42:35;97609.91;;;9.60;59.93
76195;BME280;64964;48.694;21.206;2024-03-23T01:45:01;97609.44;;;9.56;60.24
76195;BME280;64964;48.694;21.206;2024-03-23T01:47:26;97607.78;;;9.55;60.16
76195;BME280;64964;48.694;21.206;2024-03-23T01:49:52;97603.88;;;9.43;60.08
76195;BME280;64964;48.694;21.206;2024-03-23T01:52:17;97595.53;;;9.31;60.44
76195;BME280;64964;48.694;21.206;2024-03-23T01:54:43;97592.09;;;9.22;60.39
76195;BME280;64964;48.694;21.206;2024-03-23T01:57:08;97594.59;;;9.16;60.55
76195;BME280;64964;48.694;21.206;2024-03-23T01:59:34;97593.47;;;9.10;60.81
76195;BME280;64964;48.694;21.206;2024-03-23T02:01:59;97587.53;;;9.08;61.19
76195;BME280;64964;48.694;21.206;2024-03-23T02:04:25;97597.59;;;9.13;61.07
76195;BME280;64964;48.694;21.206;2024-03-23T02:06:50;97587.38;;;9.10;61.08
76195;BME280;64964;48.694;21.206;2024-03-23T02:09:15;97588.16;;;9.18;61.24
76195;BME280;64964;48.694;21.206;2024-03-23T02:11:41;97583.69;;;9.19;60.93
76195;BME280;64964;48.694;21.206;2024-03-23T02:14:06;97582.25;;;9.16;61.13
76195;BME280;64964;48.694;21.206;2024-03-23T02:16:33;97567.59;;;9.06;60.91
76195;BME280;64964;48.694;21.206;2024-03-23T02:18:58;97575.50;;;9.06;60.98
76195;BME280;64964;48.694;21.206;2024-03-23T02:21:23;97557.78;;;8.91;61.23
76195;BME280;64964;48.694;21.206;2024-03-23T02:23:49;97569.13;;;9.00;61.49
76195;BME280;64964;48.694;21.206;2024-03-23T02:26:14;97572.38;;;9.02;61.40
76195;BME280;64964;48.694;21.206;2024-03-23T02:28:40;97563.69;;;8.93;61.35
76195;BME280;64964;48.694;21.206;2024-03-23T02:31:06;97573.56;;;9.00;61.48
76195;BME280;64964;48.694;21.206;2024-03-23T02:33:31;97570.94;;;9.00;61.46
76195;BME280;64964;48.694;21.206;2024-03-23T02:35:58;97566.47;;;9.00;61.61
76195;BME280;64964;48.694;21.206;2024-03-23T02:38:23;97530.25;;;8.86;61.32
76195;BME280;64964;48.694;21.206;2024-03-23T02:40:49;97562.50;;;9.04;61.45
76195;BME280;64964;48.694;21.206;2024-03-23T02:43:14;97556.22;;;9.05;61.55
76195;BME280;64964;48.694;21.206;2024-03-23T02:45:39;97553.41;;;9.07;61.66
76195;BME280;64964;48.694;21.206;2024-03-23T02:48:05;97553.25;;;9.08;61.62
76195;BME280;64964;48.694;21.206;2024-03-23T02:50:30;97545.16;;;9.10;61.77
76195;BME280;64964;48.694;21.206;2024-03-23T02:52:56;97547.81;;;9.10;61.50
76195;BME280;64964;48.694;21.206;2024-03-23T02:55:21;97549.94;;;9.14;61.48
76195;BME280;64964;48.694;21.206;2024-03-23T02:57:47;97545.13;;;9.18;61.33
76195;BME280;64964;48.694;21.206;2024-03-23T03:00:12;97544.97;;;9.19;61.37
76195;BME280;64964;48.694;21.206;2024-03-23T03:02:38;97535.25;;;9.20;61.47
76195;BME280;64964;48.694;21.206;2024-03-23T03:05:05;97542.66;;;9.25;61.22
76195;BME280;64964;48.694;21.206;2024-03-23T03:07:31;97542.66;;;9.25;61.16
76195;BME280;64964;48.694;21.206;2024-03-23T03:09:57;97474.75;;;8.87;60.84
76195;BME280;64964;48.694;21.206;2024-03-23T03:12:22;97538.19;;;9.25;61.06
76195;BME280;64964;48.694;21.206;2024-03-23T03:14:48;97539.81;;;9.26;61.08
76195;BME280;64964;48.694;21.206;2024-03-23T03:17:13;97539.66;;;9.28;60.97
76195;BME280;64964;48.694;21.206;2024-03-23T03:19:40;97542.47;;;9.26;60.88
76195;BME280;64964;48.694;21.206;2024-03-23T03:22:05;97536.56;;;9.24;60.96
76195;BME280;64964;48.694;21.206;2024-03-23T03:24:30;97535.38;;;9.27;60.85
76195;BME280;64964;48.694;21.206;2024-03-23T03:26:56;97524.19;;;9.25;60.94
76195;BME280;64964;48.694;21.206;2024-03-23T03:29:23;97519.72;;;9.25;60.55
76195;BME280;64964;48.694;21.206;2024-03-23T03:31:49;97516.13;;;9.18;60.64
76195;BME280;64964;48.694;21.206;2024-03-23T03:34:15;97515.00;;;9.12;60.75
76195;BME280;64964;48.694;21.206;2024-03-23T03:36:40;97508.94;;;9.04;60.71
76195;BME280;64964;48.694;21.206;2024-03-23T03:39:06;97501.72;;;8.97;61.17
76195;BME280;64964;48.694;21.206;2024-03-23T03:41:32;97497.78;;;8.93;61.35
76195;BME280;64964;48.694;21.206;2024-03-23T03:43:57;97492.88;;;8.90;61.52
76195;BME280;64964;48.694;21.206;2024-03-23T03:46:27;97485.59;;;8.92;61.51
76195;BME280;64964;48.694;21.206;2024-03-23T03:48:52;97475.88;;;8.93;61.37
76195;BME280;64964;48.694;21.206;2024-03-23T03:51:19;97489.69;;;9.03;61.42
76195;BME280;64964;48.694;21.206;2024-03-23T03:53:44;97487.50;;;9.07;61.82
76195;BME280;64964;48.694;21.206;2024-03-23T03:56:09;97485.56;;;9.01;61.55
76195;BME280;64964;48.694;21.206;2024-03-23T03:58:35;97496.44;;;8.97;61.83
76195;BME280;64964;48.694;21.206;2024-03-23T04:01:00;97495.44;;;8.98;61.64
76195;BME280;64964;48.694;21.206;2024-03-23T04:03:25;97505.03;;;9.00;61.86
76195;BME280;64964;48.694;21.206;2024-03-23T04:05:52;97476.22;;;8.90;61.72
76195;BME280;64964;48.694;21.206;2024-03-23T04:08:17;97496.28;;;8.99;61.52
76195;BME280;64964;48.694;21.206;2024-03-23T04:10:43;97506.34;;;8.95;61.92
76195;BME280;64964;48.694;21.206;2024-03-23T04:13:08;97498.59;;;8.94;61.95
76195;BME280;64964;48.694;21.206;2024-03-23T04:15:34;97477.88;;;8.91;61.82
76195;BME280;64964;48.694;21.206;2024-03-23T04:17:59;97470.97;;;8.82;61.76
76195;BME280;64964;48.694;21.206;2024-03-23T04:20:24;97482.66;;;8.87;61.81
76195;BME280;64964;48.694;21.206;2024-03-23T04:22:50;97489.75;;;8.87;61.76
76195;BME280;64964;48.694;21.206;2024-03-23T04:25:15;97481.66;;;8.88;61.87
76195;BME280;64964;48.694;21.206;2024-03-23T04:27:40;97477.22;;;8.89;61.78
76195;BME280;64964;48.694;21.206;2024-03-23T04:30:07;97467.03;;;8.78;61.78
76195;BME280;64964;48.694;21.206;2024-03-23T04:32:39;97489.09;;;8.85;61.77
76195;BME280;64964;48.694;21.206;2024-03-23T04:35:05;97493.34;;;8.86;61.63
76195;BME280;64964;48.694;21.206;2024-03-23T04:37:32;97491.56;;;8.86;61.57
76195;BME280;64964;48.694;21.206;2024-03-23T04:39:58;97463.47;;;8.70;61.25
76195;BME280;64964;48.694;21.206;2024-03-23T04:42:24;97494.06;;;8.80;61.50
76195;BME280;64964;48.694;21.206;2024-03-23T04:44:49;97493.25;;;8.71;61.50
76195;BME280;64964;48.694;21.206;2024-03-23T04:47:15;97497.22;;;8.67;61.61
76195;BME280;64964;48.694;21.206;2024-03-23T04:49:42;97496.25;;;8.60;61.84
76195;BME280;64964;48.694;21.206;2024-03-23T04:52:07;97508.00;;;8.49;62.25
76195;BME280;64964;48.694;21.206;2024-03-23T04:54:32;97494.00;;;8.40;62.60
76195;BME280;64964;48.694;21.206;2024-03-23T04:56:58;97492.00;;;8.34;62.67
76195;BME280;64964;48.694;21.206;2024-03-23T04:59:24;97491.38;;;8.32;62.78
76195;BME280;64964;48.694;21.206;2024-03-23T05:01:50;97488.06;;;8.30;62.79
76195;BME280;64964;48.694;21.206;2024-03-23T05:04:15;97471.78;;;8.18;63.04
76195;BME280;64964;48.694;21.206;2024-03-23T05:06:40;97496.13;;;8.29;63.05
76195;BME280;64964;48.694;21.206;2024-03-23T05:09:06;97489.22;;;8.28;63.57
76195;BME280;64964;48.694;21.206;2024-03-23T05:11:35;97486.09;;;8.32;63.44
76195;BME280;64964;48.694;21.206;2024-03-23T05:14:00;97490.50;;;8.32;63.63
76195;BME280;64964;48.694;21.206;2024-03-23T05:16:26;97486.44;;;8.29;63.80
76195;BME280;64964;48.694;21.206;2024-03-23T05:18:52;97496.13;;;8.29;64.21
76195;BME280;64964;48.694;21.206;2024-03-23T05:21:17;97482.31;;;8.27;64.39
76195;BME280;64964;48.694;21.206;2024-03-23T05:23:42;97490.88;;;8.29;64.15
76195;BME280;64964;48.694;21.206;2024-03-23T05:26:08;97481.47;;;8.26;64.35
76195;BME280;64964;48.694;21.206;2024-03-23T05:28:34;97472.59;;;8.27;64.52
76195;BME280;64964;48.694;21.206;2024-03-23T05:31:00;97484.63;;;8.38;64.37
76195;BME280;64964;48.694;21.206;2024-03-23T05:33:25;97476.03;;;8.44;63.97
76195;BME280;64964;48.694;21.206;2024-03-23T05:35:57;97474.88;;;8.46;64.46
76195;BME280;64964;48.694;21.206;2024-03-23T05:38:23;97472.94;;;8.48;64.14
76195;BME280;64964;48.694;21.206;2024-03-23T05:40:58;97476.84;;;8.53;64.53
76195;BME280;64964;48.694;21.206;2024-03-23T05:43:25;97475.50;;;8.57;64.07
76195;BME280;64964;48.694;21.206;2024-03-23T05:45:57;97460.06;;;8.54;64.48
76195;BME280;64964;48.694;21.206;2024-03-23T05:48:23;97468.25;;;8.67;63.85
76195;BME280;64964;48.694;21.206;2024-03-23T05:50:49;97459.31;;;8.76;63.74
76195;BME280;64964;48.694;21.206;2024-03-23T05:53:15;97462.59;;;8.78;63.61
76195;BME280;64964;48.694;21.206;2024-03-23T05:55:41;97463.91;;;8.82;63.53
76195;BME280;64964;48.694;21.206;2024-03-23T05:58:06;97464.03;;;8.89;63.50
76195;BME280;64964;48.694;21.206;2024-03-23T06:00:32;97451.66;;;8.89;63.55
76195;BME280;64964;48.694;21.206;2024-03-23T06:02:57;97434.06;;;8.82;63.50
76195;BME280;64964;48.694;21.206;2024-03-23T06:05:23;97457.06;;;8.96;63.35
76195;BME280;64964;48.694;21.206;2024-03-23T06:07:49;97456.75;;;8.99;63.23
76195;BME280;64964;48.694;21.206;2024-03-23T06:10:15;97461.31;;;9.05;63.24
76195;BME280;64964;48.694;21.206;2024-03-23T06:12:40;97464.63;;;9.07;63.02
76195;BME280;64964;48.694;21.206;2024-03-23T06:15:07;97462.78;;;9.08;63.29
76195;BME280;64964;48.694;21.206;2024-03-23T06:17:36;97452.41;;;9.06;63.07
76195;BME280;64964;48.694;21.206;2024-03-23T06:20:01;97452.53;;;9.13;62.94
76195;BME280;64964;48.694;21.206;2024-03-23T06:22:27;97450.00;;;9.19;62.92
76195;BME280;64964;48.694;21.206;2024-03-23T06:24:52;97444.41;;;9.22;62.76
76195;BME280;64964;48.694;21.206;2024-03-23T06:27:17;97440.06;;;9.30;62.57
76195;BME280;64964;48.694;21.206;2024-03-23T06:29:43;97446.13;;;9.38;62.69
76195;BME280;64964;48.694;21.206;2024-03-23T06:32:08;97438.00;;;9.40;62.43
76195;BME280;64964;48.694;21.206;2024-03-23T06:34:33;97404.50;;;9.26;62.62
76195;BME280;64964;48.694;21.206;2024-03-23T06:36:59;97431.88;;;9.47;62.43
76195;BME280;64964;48.694;21.206;2024-03-23T06:39:24;97435.97;;;9.50;62.15
76195;BME280;64964;48.694;21.206;2024-03-23T06:41:53;97430.41;;;9.45;62.36
76195;BME280;64964;48.694;21.206;2024-03-23T06:44:19;97413.16;;;9.34;62.43
76195;BME280;64964;48.694;21.206;2024-03-23T06:46:45;97433.88;;;9.45;62.32
76195;BME280;64964;48.694;21.206;2024-03-23T06:49:11;97422.84;;;9.42;62.22
76195;BME280;64964;48.694;21.206;2024-03-23T06:51:36;97434.97;;;9.51;62.36
76195;BME280;64964;48.694;21.206;2024-03-23T06:54:03;97420.63;;;9.54;62.00
76195;BME280;64964;48.694;21.206;2024-03-23T06:56:29;97430.91;;;9.63;62.27
76195;BME280;64964;48.694;21.206;2024-03-23T06:58:54;97415.91;;;9.64;62.03
76195;BME280;64964;48.694;21.206;2024-03-23T07:01:20;97424.84;;;9.78;61.59
76195;BME280;64964;48.694;21.206;2024-03-23T07:03:46;97418.28;;;9.73;61.49
76195;BME280;64964;48.694;21.206;2024-03-23T07:06:11;97404.19;;;9.66;61.58
76195;BME280;64964;48.694;21.206;2024-03-23T07:08:37;97430.31;;;9.76;61.76
76195;BME280;64964;48.694;21.206;2024-03-23T07:11:02;97422.94;;;9.71;61.74
76195;BME280;64964;48.694;21.206;2024-03-23T07:13:28;97407.91;;;9.57;61.87
76195;BME280;64964;48.694;21.206;2024-03-23T07:15:53;97422.94;;;9.71;61.96
76195;BME280;64964;48.694;21.206;2024-03-23T07:18:22;97430.84;;;9.71;62.13
76195;BME280;64964;48.694;21.206;2024-03-23T07:20:54;97433.31;;;9.73;62.23
76195;BME280;64964;48.694;21.206;2024-03-23T07:23:21;97422.94;;;9.71;62.44
76195;BME280;64964;48.694;21.206;2024-03-23T07:25:59;97417.84;;;9.70;62.29
76195;BME280;64964;48.694;21.206;2024-03-23T07:28:24;97419.13;;;9.74;62.59
76195;BME280;64964;48.694;21.206;2024-03-23T07:31:12;97403.19;;;9.67;62.98
76195;BME280;64964;48.694;21.206;2024-03-23T07:33:44;97375.91;;;9.52;62.65
76195;BME280;64964;48.694;21.206;2024-03-23T07:36:09;97417.78;;;9.93;62.60
76195;BME280;64964;48.694;21.206;2024-03-23T07:38:35;97400.94;;;9.94;62.37
76195;BME280;64964;48.694;21.206;2024-03-23T07:41:10;97395.19;;;9.90;62.52
76195;BME280;64964;48.694;21.206;2024-03-23T07:43:39;97398.59;;;9.99;62.49
76195;BME280;64964;48.694;21.206;2024-03-23T07:46:05;97396.59;;;10.01;62.57
76195;BME280;64964;48.694;21.206;2024-03-23T07:48:31;97406.25;;;10.09;62.34
76195;BME280;64964;48.694;21.206;2024-03-23T07:51:22;97406.53;;;10.14;63.15
76195;BME280;64964;48.694;21.206;2024-03-23T07:53:48;97398.88;;;10.19;62.18
76195;BME280;64964;48.694;21.206;2024-03-23T07:56:14;97381.66;;;10.23;61.85
76195;BME280;64964;48.694;21.206;2024-03-23T07:58:41;97390.44;;;10.38;62.08
76195;BME280;64964;48.694;21.206;2024-03-23T08:01:11;97390.34;;;10.46;62.00
76195;BME280;64964;48.694;21.206;2024-03-23T08:03:37;97396.97;;;10.57;61.53
76195;BME280;64964;48.694;21.206;2024-03-23T08:08:33;97390.03;;;10.71;61.20
76195;BME280;64964;48.694;21.206;2024-03-23T08:10:58;97386.19;;;10.73;60.99
76195;BME280;64964;48.694;21.206;2024-03-23T08:13:24;97367.44;;;10.68;61.01
76195;BME280;64964;48.694;21.206;2024-03-23T08:15:49;97385.53;;;10.86;60.60
76195;BME280;64964;48.694;21.206;2024-03-23T08:18:15;97358.38;;;10.78;60.54
76195;BME280;64964;48.694;21.206;2024-03-23T08:20:43;97354.75;;;10.79;60.70
76195;BME280;64964;48.694;21.206;2024-03-23T08:23:08;97368.38;;;10.97;60.66
76195;BME280;64964;48.694;21.206;2024-03-23T08:25:34;97365.81;;;11.04;60.52
76195;BME280;64964;48.694;21.206;2024-03-23T08:28:00;97360.56;;;11.10;60.09
76195;BME280;64964;48.694;21.206;2024-03-23T08:30:25;97362.03;;;11.13;60.38
76195;BME280;64964;48.694;21.206;2024-03-23T08:32:51;97362.28;;;11.18;59.99
76195;BME280;64964;48.694;21.206;2024-03-23T08:35:17;97361.91;;;11.21;59.79
76195;BME280;64964;48.694;21.206;2024-03-23T08:37:42;97366.78;;;11.24;60.36
76195;BME280;64964;48.694;21.206;2024-03-23T08:40:08;97362.72;;;11.21;59.74
76195;BME280;64964;48.694;21.206;2024-03-23T08:42:34;97359.81;;;11.16;59.97
76195;BME280;64964;48.694;21.206;2024-03-23T08:44:59;97358.97;;;11.16;59.98
76195;BME280;64964;48.694;21.206;2024-03-23T08:47:25;97354.69;;;11.15;60.02
76195;BME280;64964;48.694;21.206;2024-03-23T08:49:51;97357.78;;;11.18;60.03
76195;BME280;64964;48.694;21.206;2024-03-23T08:52:16;97318.72;;;10.99;59.73
76195;BME280;64964;48.694;21.206;2024-03-23T08:54:41;97356.47;;;11.29;59.88
76195;BME280;64964;48.694;21.206;2024-03-23T08:57:07;97354.69;;;11.36;59.62
76195;BME280;64964;48.694;21.206;2024-03-23T08:59:33;97364.09;;;11.39;59.17
76195;BME280;64964;48.694;21.206;2024-03-23T09:01:58;97355.50;;;11.37;59.29
76195;BME280;64964;48.694;21.206;2024-03-23T09:04:23;97352.94;;;11.43;58.83
76195;BME280;64964;48.694;21.206;2024-03-23T09:06:49;97340.34;;;11.45;58.77
76195;BME280;64964;48.694;21.206;2024-03-23T09:09:15;97337.38;;;11.34;58.84
76195;BME280;64964;48.694;21.206;2024-03-23T09:11:40;97349.97;;;11.32;58.81
76195;BME280;64964;48.694;21.206;2024-03-23T09:14:05;97340.16;;;11.26;58.98
76195;BME280;64964;48.694;21.206;2024-03-23T09:16:31;97345.91;;;11.29;59.00
76195;BME280;64964;48.694;21.206;2024-03-23T09:18:56;97321.56;;;11.19;58.97
76195;BME280;64964;48.694;21.206;2024-03-23T09:21:22;97332.78;;;11.21;59.12
76195;BME280;64964;48.694;21.206;2024-03-23T09:23:47;97319.50;;;11.14;59.24
76195;BME280;64964;48.694;21.206;2024-03-23T09:26:12;97338.25;;;11.19;59.24
76195;BME280;64964;48.694;21.206;2024-03-23T09:28:38;97327.22;;;11.16;59.54
76195;BME280;64964;48.694;21.206;2024-03-23T09:31:04;97323.53;;;11.10;59.89
76195;BME280;64964;48.694;21.206;2024-03-23T09:33:30;97326.41;;;11.15;59.42
76195;BME280;64964;48.694;21.206;2024-03-23T09:35:55;97326.63;;;11.14;59.86
76195;BME280;64964;48.694;21.206;2024-03-23T09:38:22;97319.03;;;11.11;59.93
76195;BME280;64964;48.694;21.206;2024-03-23T09:40:50;97314.97;;;11.08;59.92
76195;BME280;64964;48.694;21.206;2024-03-23T09:43:18;97302.44;;;10.95;60.00
76195;BME280;64964;48.694;21.206;2024-03-23T09:45:45;97303.88;;;10.98;60.02
76195;BME280;64964;48.694;21.206;2024-03-23T09:48:11;97315.34;;;11.05;60.29
76195;BME280;64964;48.694;21.206;2024-03-23T09:50:40;97309.84;;;11.07;60.38
76195;BME280;64964;48.694;21.206;2024-03-23T09:53:11;97273.19;;;10.82;60.01
76195;BME280;64964;48.694;21.206;2024-03-23T09:55:37;97319.00;;;11.04;60.39
76195;BME280;64964;48.694;21.206;2024-03-23T09:58:04;97287.75;;;10.93;60.57
76195;BME280;64964;48.694;21.206;2024-03-23T10:00:34;97300.28;;;11.06;60.47
76195;BME280;64964;48.694;21.206;2024-03-23T10:02:59;97285.56;;;10.96;60.88
76195;BME280;64964;48.694;21.206;2024-03-23T10:05:28;97286.00;;;11.00;60.85
76195;BME280;64964;48.694;21.206;2024-03-23T10:07:53;97285.06;;;11.08;60.64
76195;BME280;64964;48.694;21.206;2024-03-23T10:10:19;97274.91;;;11.11;60.88
76195;BME280;64964;48.694;21.206;2024-03-23T10:12:48;97251.22;;;11.03;60.79
76195;BME280;64964;48.694;21.206;2024-03-23T10:15:20;97276.16;;;11.15;61.06
76195;BME280;64964;48.694;21.206;2024-03-23T10:17:46;97273.94;;;11.19;60.87
76195;BME280;64964;48.694;21.206;2024-03-23T10:20:12;97269.28;;;11.21;60.89
76195;BME280;64964;48.694;21.206;2024-03-23T10:22:38;97269.97;;;11.30;61.13
76195;BME280;64964;48.694;21.206;2024-03-23T10:25:08;97262.28;;;11.35;60.88
76195;BME280;64964;48.694;21.206;2024-03-23T10:27:33;97244.13;;;11.32;60.98
76195;BME280;64964;48.694;21.206;2024-03-23T10:30:11;97254.25;;;11.50;61.09
76195;BME280;64964;48.694;21.206;2024-03-23T10:32:37;97255.91;;;11.57;60.71
76195;BME280;64964;48.694;21.206;2024-03-23T10:35:21;97251.00;;;11.54;61.05
76195;BME280;64964;48.694;21.206;2024-03-23T10:37:48;97253.69;;;11.61;60.86
76195;BME280;64964;48.694;21.206;2024-03-23T10:40:17;97248.63;;;11.66;60.79
76195;BME280;64964;48.694;21.206;2024-03-23T10:42:44;97247.84;;;11.72;60.72
76195;BME280;64964;48.694;21.206;2024-03-23T10:45:09;97243.16;;;11.74;60.92
76195;BME280;64964;48.694;21.206;2024-03-23T10:47:36;97235.66;;;11.78;60.97
76195;BME280;64964;48.694;21.206;2024-03-23T10:50:02;97196.69;;;11.65;60.79
76195;BME280;64964;48.694;21.206;2024-03-23T10:52:28;97229.25;;;11.93;61.49
76195;BME280;64964;48.694;21.206;2024-03-23T10:54:54;97219.09;;;11.97;60.79
76195;BME280;64964;48.694;21.206;2024-03-23T10:57:26;97202.97;;;11.92;60.78
76195;BME280;64964;48.694;21.206;2024-03-23T10:59:56;97213.63;;;12.05;60.52
76195;BME280;64964;48.694;21.206;2024-03-23T11:02:22;97211.78;;;12.06;60.83
76195;BME280;64964;48.694;21.206;2024-03-23T11:04:47;97212.22;;;12.09;60.85
76195;BME280;64964;48.694;21.206;2024-03-23T11:09:50;97199.59;;;12.18;60.89
76195;BME280;64964;48.694;21.206;2024-03-23T11:12:25;97201.47;;;12.31;60.29
76195;BME280;64964;48.694;21.206;2024-03-23T11:15:01;97194.53;;;12.36;59.93
76195;BME280;64964;48.694;21.206;2024-03-23T11:17:27;97185.78;;;12.29;60.13
76195;BME280;64964;48.694;21.206;2024-03-23T11:20:01;97178.22;;;12.33;60.05
76195;BME280;64964;48.694;21.206;2024-03-23T11:25:22;97145.19;;;12.22;60.12
76195;BME280;64964;48.694;21.206;2024-03-23T11:27:56;97177.25;;;12.47;60.21
76195;BME280;64964;48.694;21.206;2024-03-23T11:30:27;97170.69;;;12.50;60.31
76195;BME280;64964;48.694;21.206;2024-03-23T11:32:55;97153.19;;;12.55;60.20
76195;BME280;64964;48.694;21.206;2024-03-23T11:38:15;97137.09;;;12.63;60.28
76195;BME280;64964;48.694;21.206;2024-03-23T11:40:47;97132.78;;;12.69;59.80
76195;BME280;64964;48.694;21.206;2024-03-23T11:43:17;97130.56;;;12.73;60.08
76195;BME280;64964;48.694;21.206;2024-03-23T11:48:18;97102.81;;;12.75;59.80
76195;BME280;64964;48.694;21.206;2024-03-23T11:50:49;97117.25;;;12.99;59.78
76195;BME280;64964;48.694;21.206;2024-03-23T11:58:16;97108.84;;;13.29;59.67
76195;BME280;64964;48.694;21.206;2024-03-23T12:00:43;97098.81;;;13.37;59.19
76195;BME280;64964;48.694;21.206;2024-03-23T12:03:14;97092.06;;;13.48;59.53
76195;BME280;64964;48.694;21.206;2024-03-23T12:05:41;97092.19;;;13.66;59.10
76195;BME280;64964;48.694;21.206;2024-03-23T12:10:48;97081.03;;;13.89;58.67
76195;BME280;64964;48.694;21.206;2024-03-23T12:13:21;97054.09;;;13.86;58.76
76195;BME280;64964;48.694;21.206;2024-03-23T12:15:50;97076.63;;;14.08;58.62
76195;BME280;64964;48.694;21.206;2024-03-23T12:18:16;97076.59;;;14.15;58.52
76195;BME280;64964;48.694;21.206;2024-03-23T12:20:42;97071.25;;;14.22;58.67
76195;BME280;64964;48.694;21.206;2024-03-23T12:23:09;97070.59;;;14.26;58.18
76195;BME280;64964;48.694;21.206;2024-03-23T12:25:37;97062.63;;;14.26;58.08
76195;BME280;64964;48.694;21.206;2024-03-23T12:28:02;97059.91;;;14.33;57.86
76195;BME280;64964;48.694;21.206;2024-03-23T12:30:28;97063.16;;;14.35;57.97
76195;BME280;64964;48.694;21.206;2024-03-23T12:32:53;97051.91;;;14.33;58.14
76195;BME280;64964;48.694;21.206;2024-03-23T12:35:19;97058.44;;;14.37;57.69
76195;BME280;64964;48.694;21.206;2024-03-23T12:37:45;97057.19;;;14.39;57.54
76195;BME280;64964;48.694;21.206;2024-03-23T12:40:10;97055.34;;;14.40;57.49
76195;BME280;64964;48.694;21.206;2024-03-23T12:42:36;97045.91;;;14.44;57.30
76195;BME280;64964;48.694;21.206;2024-03-23T12:45:01;97043.81;;;14.46;57.40
76195;BME280;64964;48.694;21.206;2024-03-23T12:47:28;97035.66;;;14.48;57.39
76195;BME280;64964;48.694;21.206;2024-03-23T12:49:55;97037.50;;;14.47;57.17
76195;BME280;64964;48.694;21.206;2024-03-23T12:52:20;97034.41;;;14.50;57.52
76195;BME280;64964;48.694;21.206;2024-03-23T12:54:46;97019.31;;;14.51;57.22
76195;BME280;64964;48.694;21.206;2024-03-23T12:57:12;97015.16;;;14.55;57.12
76195;BME280;64964;48.694;21.206;2024-03-23T12:59:37;97006.59;;;14.53;57.23
76195;BME280;64964;48.694;21.206;2024-03-23T13:02:03;97006.81;;;14.51;56.95
76195;BME280;64964;48.694;21.206;2024-03-23T13:04:28;96997.41;;;14.49;57.57
76195;BME280;64964;48.694;21.206;2024-03-23T13:06:53;96988.81;;;14.47;57.17
76195;BME280;64964;48.694;21.206;2024-03-23T13:09:19;96992.28;;;14.47;57.39
76195;BME280;64964;48.694;21.206;2024-03-23T13:11:44;96983.13;;;14.43;57.23
76195;BME280;64964;48.694;21.206;2024-03-23T13:14:10;96984.31;;;14.47;57.52
76195;BME280;64964;48.694;21.206;2024-03-23T13:16:35;96973.25;;;14.50;57.30
76195;BME280;64964;48.694;21.206;2024-03-23T13:19:01;96957.53;;;14.42;57.44
76195;BME280;64964;48.694;21.206;2024-03-23T13:21:26;96965.28;;;14.50;57.54
76195;BME280;64964;48.694;21.206;2024-03-23T13:23:52;96951.16;;;14.50;57.53
76195;BME280;64964;48.694;21.206;2024-03-23T13:26:17;96942.97;;;14.51;57.24
76195;BME280;64964;48.694;21.206;2024-03-23T13:28:43;96938.06;;;14.48;56.88
76195;BME280;64964;48.694;21.206;2024-03-23T13:31:08;96921.59;;;14.39;56.89
76195;BME280;64964;48.694;21.206;2024-03-23T13:33:34;96930.50;;;14.45;56.84
76195;BME280;64964;48.694;21.206;2024-03-23T13:35:59;96933.97;;;14.45;56.74
76195;BME280;64964;48.694;21.206;2024-03-23T13:38:25;96927.03;;;14.44;56.63
76195;BME280;64964;48.694;21.206;2024-03-23T13:40:58;96927.47;;;14.41;56.75
76195;BME280;64964;48.694;21.206;2024-03-23T13:43:26;96926.63;;;14.48;56.84
76195;BME280;64964;48.694;21.206;2024-03-23T13:45:56;96898.38;;;14.28;56.47
76195;BME280;64964;48.694;21.206;2024-03-23T13:48:26;96933.78;;;14.47;56.90
76195;BME280;64964;48.694;21.206;2024-03-23T13:51:04;96932.34;;;14.51;56.70
76195;BME280;64964;48.694;21.206;2024-03-23T13:53:31;96923.56;;;14.51;56.89
76195;BME280;64964;48.694;21.206;2024-03-23T13:55:58;96905.94;;;14.50;56.94
76195;BME280;64964;48.694;21.206;2024-03-23T13:58:23;96904.53;;;14.47;56.97
76195;BME280;64964;48.694;21.206;2024-03-23T14:00:50;96902.06;;;14.45;57.19
76195;BME280;64964;48.694;21.206;2024-03-23T14:03:16;96776.94;;;13.67;57.15
76195;BME280;64964;48.694;21.206;2024-03-23T14:05:42;96902.31;;;14.44;57.28